LiveATC.Net - Listen to live air traffic control over the Internet!


ICAO: KBIE  IATA: BIE   Airport: Beatrice Municipal Airport
City: Beatrice   State/Province: Nebraska
Country: United States   Continent: North America
KBIE METAR Weather: KBIE 221855Z AUTO 00000KT 10SM OVC013 19/16 A2990 RMK AO2 T01880161
KBIE Flight Activity (FlightAware)
KBIE Airport Info   (AirNav) (iFlightPlanner)
KBIE VFR Sectional Chart   (iFlightPlanner) 
KBIE IFR Low Chart   (iFlightPlanner) 

KBIE CTAF (Air Race Classic)
Feed Status: UP   Listeners: 0
Listen right in your browser - requires Flash (in browser, requires Flash)
Click here to listen with your own player (launches your MP3 player)
KBIE CTAF (Air Race Classic) Audio Archives
FacilityFrequency
Beatrice CTAF122.800

NOTICE

Unauthorized use prohibited. See LiveATC.net Terms of Service


Find LiveATC Audio Streams


Airport/ARTCC Code

Frequency Search
(e.g., 124.400, 128.75)
Site-wide search
 


Browse LiveATC Feeds
LiveATC Coverage Map
Top 50 LiveATC Feeds
Bad Weather Areas

LiveATC FAQ
Offer a LiveATC Feed
Contact LiveATC.net
Press Inquiries

LiveATC on iPhone
LiveATC on Android

Windows Phone
Windows 8/10

LiveATC Mobile
(Mobile browser)

ATC Audio Archives
Interesting Recordings

LiveATC Forums


Home Page
About LiveATC.net
Make a Donation
Terms of Use
Privacy Policy

Canadian Air Freqs

AIRMETs/SIGMETs

FAA Airport Status
Nat'l Airspace Status
Arrival Demand Charts


Server Software By:
Icecast.org
Liquidsoap